Latest Weather Observations for Clermont Airport

IDQ60801

Issued at 11:32 am EST Saturday 4 July 2015 (issued every 30 minutes, with the page automatically refreshed every 10 minutes)

About weather observations | Map of weather stations | Latest weather observations for QLD | Other Formats
Station Details ID: 035124 Name: CLERMONT AIRPORT Lat: -22.78 Lon: 147.62 Height: 270.27 m
Data from the previous 72 hours. | See also: Recent months at Clermont Airport
Date/Time
EST
Temp
°C
App
Temp
°C
Dew
Point
Rel
Hum
%
Delta-T
°C
Wind Press
QNH
hPa
Press
MSL
hPa
Rain
since 9 am
mm
Dir
 
Spd
km/h
Gust
km/h
Spd
kts
Gust
kts
04/11:00am 16.6 13.5 3.7 42 6.0 SE 9 15 5 8 1022.4 1022.1 0.0
04/10:30am 15.4 12.1 2.6 42 5.8 SE 9 17 5 9 1022.7 1022.4 0.0
04/10:00am 14.6 11.6 2.2 43 5.5 S 7 13 4 7 1022.8 1022.5 0.0
04/09:30am 12.2 8.6 0.9 46 4.8 SSE 9 11 5 6 1023.0 1022.7 0.0
04/09:00am 10.9 7.3 0.6 49 4.3 SSE 9 15 5 8 1023.2 1022.9 0.0
04/08:30am 9.4 6.2 0.8 55 3.5 SE 7 11 4 6 1023.1 1022.8 0.0
04/08:00am 7.8 4.6 1.0 62 2.8 SSW 7 11 4 6 1022.8 1022.5 0.0
04/07:00am 1.1 -2.3 -2.0 80 1.1 SSW 6 6 3 3 1022.4 1022.1 0.0
04/06:30am 0.9 -2.1 -2.0 81 1.1 SW 4 6 2 3 1022.3 1022.0 0.0
04/06:00am 0.7 -1.6 -2.2 81 1.0 CALM 0 0 0 0 1022.1 1021.8 0.0
04/05:30am 0.9 -1.4 -2.2 80 1.1 CALM 0 0 0 0 1022.0 1021.7 0.0
04/05:00am 1.0 -2.0 -2.1 80 1.1 WSW 4 6 2 3 1021.7 1021.5 0.0
04/04:30am 1.5 -1.9 -1.7 79 1.1 SSW 6 6 3 3 1021.7 1021.5 0.0
04/04:00am 2.6 0.4 -1.4 75 1.4 CALM 0 0 0 0 1021.8 1021.6 0.0
04/03:30am 2.2 -1.1 -1.6 76 1.4 S 6 6 3 3 1021.6 1021.4 0.0
04/03:00am 2.3 -0.6 -1.3 77 1.3 WSW 4 6 2 3 1021.8 1021.6 0.0
04/02:30am 2.6 -0.7 -1.4 75 1.5 SW 6 9 3 5 1021.8 1021.6 0.0
04/02:00am 2.6 0.0 -1.9 72 1.6 W 2 2 1 1 1021.8 1021.6 0.0
04/01:30am 3.9 1.4 -1.1 70 1.9 SSW 2 6 1 3 1022.0 1021.7 0.0
04/01:00am 5.3 3.1 -1.2 63 2.4 CALM 0 0 0 0 1022.1 1021.8 0.0
04/12:30am 4.8 1.4 -1.8 62 2.4 S 6 7 3 4 1022.0 1021.7 0.0
04/12:00am 7.7 4.6 0.0 58 3.1 SSE 6 9 3 5 1022.3 1022.0 0.0
 
Date/Time
EST
Temp
°C
App
Temp
°C
Dew
Point
Rel
Hum
%
Delta-T
°C
Wind Press
QNH
hPa
Press
MSL
hPa
Rain
since 9 am
mm
Dir
 
Spd
km/h
Gust
km/h
Spd
kts
Gust
kts
03/11:30pm 9.3 7.3 0.2 53 3.7 CALM 0 2 0 1 1022.5 1022.2 0.0
03/11:00pm 10.2 7.2 0.8 52 3.9 SE 6 9 3 5 1022.6 1022.3 0.0
03/10:30pm 10.5 7.8 0.3 49 4.2 ESE 4 9 2 5 1022.7 1022.4 0.0
03/10:00pm 12.6 9.4 1.0 45 4.9 SE 7 13 4 7 1022.5 1022.2 0.0
03/09:30pm 13.1 9.6 1.1 44 5.2 SE 9 15 5 8 1022.4 1022.1 0.0
03/09:00pm 11.5 8.4 0.3 46 4.7 SSE 6 7 3 4 1022.1 1021.8 0.0
03/08:30pm 12.1 9.0 0.2 44 5.0 S 6 6 3 3 1021.7 1021.5 0.0
03/08:00pm 12.8 9.6 0.5 43 5.2 SSE 7 9 4 5 1021.5 1021.2 0.0
03/07:30pm 13.4 10.2 -0.6 38 5.8 SSE 6 11 3 6 1021.3 1021.0 0.0
03/07:00pm 15.4 12.3 0.0 35 6.6 SE 6 9 3 5 1021.1 1020.8 0.0
03/06:30pm 16.0 12.7 0.2 34 6.9 SE 7 9 4 5 1020.7 1020.4 0.0
03/06:00pm 16.4 13.7 0.1 33 7.1 SE 4 7 2 4 1020.5 1020.2 0.0
03/05:30pm 17.7 14.6 -0.1 30 7.8 ESE 6 9 3 5 1020.4 1020.1 0.0
03/05:00pm 18.9 15.5 -0.5 27 8.5 ESE 7 13 4 7 1020.1 1019.8 0.0
03/04:30pm 19.3 15.1 -1.2 25 8.9 SSE 11 17 6 9 1019.7 1019.4 0.0
03/04:00pm 19.8 15.6 -0.8 25 9.0 SSE 11 17 6 9 1019.4 1019.1 0.0
03/03:30pm 19.8 16.5 -0.2 26 8.9 SE 7 13 4 7 1019.3 1019.0 0.0
03/03:00pm 19.6 15.4 -0.9 25 9.0 SSE 11 19 6 10 1019.4 1019.1 0.0
03/02:30pm 18.9 14.3 -1.0 26 8.7 SE 13 19 7 10 1019.6 1019.3 0.0
03/02:00pm 18.6 13.7 -0.2 28 8.3 SSE 15 24 8 13 1019.9 1019.6 0.0
03/01:30pm 18.6 14.1 -0.2 28 8.3 SE 13 22 7 12 1020.4 1020.1 0.0
03/01:00pm 17.8 13.8 0.5 31 7.7 ESE 11 20 6 11 1020.9 1020.6 0.0
03/12:30pm 16.8 12.4 0.5 33 7.2 SSE 13 22 7 12 1021.7 1021.5 0.0
03/12:00pm 16.3 12.0 1.2 36 6.7 SSE 13 26 7 14 1022.3 1022.0 0.0
03/11:30am 15.7 11.1 1.4 38 6.4 SE 15 26 8 14 1022.7 1022.4 0.0
03/11:00am 14.1 9.2 1.7 43 5.4 SE 17 26 9 14 1023.2 1022.9 0.0
03/10:30am 14.4 10.0 2.6 45 5.3 SE 15 26 8 14 1023.5 1023.2 0.0
03/10:00am 13.1 8.3 2.4 48 4.7 SE 17 26 9 14 1023.7 1023.4 0.0
03/09:30am 12.2 6.8 2.6 52 4.2 SE 20 41 11 22 1023.7 1023.4 0.0
03/09:00am 11.3 5.6 3.1 57 3.6 SE 22 35 12 19 1023.9 1023.6 0.0
03/08:30am 10.3 4.7 3.3 62 3.1 SSE 22 39 12 21 1023.6 1023.3 0.0
03/08:00am 9.3 4.7 3.7 68 2.5 SE 17 28 9 15 1023.5 1023.2 0.0
03/07:30am 8.5 5.1 4.1 74 1.9 SSE 11 17 6 9 1023.1 1022.8 0.0
03/07:00am 7.0 4.7 4.8 86 1.0 SSE 6 9 3 5 1022.9 1022.6 0.0
03/06:30am 5.7 3.1 3.2 84 1.1 S 6 7 3 4 1022.5 1022.2 0.0
03/06:00am 5.8 3.2 3.0 82 1.2 SSE 6 7 3 4 1022.3 1022.0 0.0
03/05:30am 5.6 3.6 2.3 79 1.4 SSE 2 6 1 3 1022.1 1021.8 0.0
03/05:00am 7.5 5.5 4.3 80 1.4 SSE 4 6 2 3 1021.6 1021.4 0.0
03/04:30am 7.7 5.6 3.9 77 1.7 S 4 6 2 3 1021.4 1021.1 0.0
03/04:00am 8.6 6.6 4.6 76 1.8 SE 4 7 2 4 1021.2 1020.9 0.0
03/03:30am 8.5 7.2 3.9 73 2.0 CALM 0 0 0 0 1021.2 1020.9 0.0
03/03:00am 9.3 7.3 4.3 71 2.2 SSE 4 4 2 2 1021.1 1020.8 0.0
03/02:30am 8.9 6.4 3.7 70 2.3 S 6 7 3 4 1021.1 1020.8 0.0
03/02:00am 9.3 6.8 3.9 69 2.4 S 6 9 3 5 1021.4 1021.1 0.0
03/01:30am 9.5 7.1 4.1 69 2.4 S 6 7 3 4 1021.6 1021.4 0.0
03/01:00am 10.1 8.0 4.0 66 2.7 SSE 4 6 2 3 1021.8 1021.6 0.0
03/12:30am 10.0 8.4 4.6 69 2.5 ESE 2 4 1 2 1022.0 1021.7 0.0
03/12:00am 8.6 6.3 2.8 67 2.5 ENE 4 6 2 3 1022.1 1021.8 0.0
 
Date/Time
EST
Temp
°C
App
Temp
°C
Dew
Point
Rel
Hum
%
Delta-T
°C
Wind Press
QNH
hPa
Press
MSL
hPa
Rain
since 9 am
mm
Dir
 
Spd
km/h
Gust
km/h
Spd
kts
Gust
kts
02/11:55pm 8.4 5.9 1.8 63 2.8 E 4 7 2 4 1022.1 1021.8 0.0
02/11:30pm 13.4 10.8 4.3 54 4.2 S 7 11 4 6 1022.0 1021.7 0.0
02/11:00pm 14.1 11.6 4.7 53 4.4 S 7 11 4 6 1022.2 1021.9 0.0
02/10:30pm 14.4 11.7 5.5 55 4.3 S 9 11 5 6 1022.2 1021.9 0.0
02/10:00pm 11.7 9.4 4.7 62 3.2 S 6 9 3 5 1022.2 1021.9 0.0
02/09:30pm 10.9 8.5 4.4 64 3.0 SSW 6 9 3 5 1022.0 1021.7 0.0
02/09:00pm 11.0 9.8 4.7 65 2.9 CALM 0 0 0 0 1021.7 1021.5 0.0
02/08:30pm 11.9 9.8 5.8 66 2.9 SW 6 6 3 3 1021.6 1021.4 0.0
02/08:00pm 13.2 11.4 5.4 59 3.7 SSW 4 6 2 3 1021.3 1021.0 0.0
02/07:30pm 14.9 13.2 5.7 54 4.4 SSW 4 4 2 2 1021.0 1020.7 0.0
02/07:00pm 18.1 16.6 6.6 47 5.8 SSE 4 6 2 3 1020.6 1020.3 0.0
02/06:30pm 19.1 17.6 6.9 45 6.2 SSE 4 6 2 3 1020.1 1019.8 0.0
02/06:00pm 20.3 18.8 7.0 42 6.8 SE 4 6 2 3 1019.6 1019.3 0.0
02/05:30pm 21.4 19.5 6.5 38 7.7 SE 6 7 3 4 1019.4 1019.1 0.0
02/05:00pm 23.0 20.8 6.3 34 8.6 SE 7 11 4 6 1019.2 1018.9 0.0
02/04:30pm 23.3 21.3 6.1 33 8.9 ESE 6 9 3 5 1019.1 1018.8 0.0
02/04:00pm 23.6 20.7 6.4 33 8.9 SSE 11 32 6 17 1019.1 1018.8 0.0
02/03:30pm 23.5 21.0 6.7 34 8.8 SSW 9 20 5 11 1019.1 1018.8 0.0
02/03:00pm 23.9 20.9 7.5 35 8.7 S 13 22 7 12 1019.2 1018.9 0.0
02/02:30pm 23.5 20.5 7.6 36 8.4 SW 13 20 7 11 1019.4 1019.1 0.0
02/02:00pm 23.4 20.0 7.5 36 8.4 SSW 15 24 8 13 1019.7 1019.4 0.0
02/01:30pm 22.8 20.3 8.1 39 7.8 SSE 11 19 6 10 1020.2 1019.9 0.0
02/01:00pm 22.4 19.5 8.1 40 7.6 S 13 20 7 11 1020.8 1020.5 0.0
02/12:30pm 22.3 19.6 8.8 42 7.3 S 13 20 7 11 1021.5 1021.2 0.0
02/12:00pm 21.6 19.4 9.2 45 6.7 SE 11 19 6 10 1022.2 1021.9 0.0
02/11:30am 20.0 17.7 9.0 49 5.9 SE 11 17 6 9 1022.7 1022.4 0.0
02/11:00am 19.8 17.6 9.4 51 5.6 SE 11 17 6 9 1023.5 1023.2 0.0
02/10:30am 18.2 16.7 9.0 55 4.9 SE 7 19 4 10 1024.0 1023.7 0.0
02/10:00am 16.9 14.5 8.8 59 4.2 SSE 11 17 6 9 1024.5 1024.2 0.0
02/09:30am 16.0 13.7 9.0 63 3.6 SSE 11 15 6 8 1024.8 1024.6 0.0
02/09:00am 15.3 12.9 8.8 65 3.3 SE 11 17 6 9 1024.8 1024.6 0.0
02/08:30am 14.2 11.8 8.6 69 2.9 SE 11 17 6 9 1024.7 1024.4 0.0
02/08:00am 13.1 11.7 9.0 76 2.1 S 6 9 3 5 1024.3 1024.0 0.0
02/07:30am 10.9 10.1 8.3 84 1.3 S 2 4 1 2 1024.1 1023.8 0.0
02/07:00am 10.1 8.6 8.4 89 0.8 SSE 6 7 3 4 1023.9 1023.6 0.0
02/06:30am 9.9 8.6 7.5 85 1.2 S 4 6 2 3 1023.5 1023.2 0.0
02/06:00am 9.5 7.6 6.9 84 1.2 S 6 7 3 4 1023.3 1023.0 0.0
02/05:30am 10.2 8.9 7.6 84 1.3 S 4 6 2 3 1023.0 1022.7 0.0
02/05:00am 10.9 9.4 8.5 85 1.2 S 6 6 3 3 1022.9 1022.6 0.0
02/04:30am 10.5 9.3 7.9 84 1.3 SSW 4 4 2 2 1022.9 1022.6 0.0
02/04:00am 11.4 11.1 8.6 83 1.4 CALM 0 2 0 1 1023.1 1022.8 0.0
02/03:30am 11.9 10.5 8.9 82 1.5 S 6 7 3 4 1023.3 1023.0 0.0
02/03:00am 12.0 10.5 8.5 79 1.8 S 6 7 3 4 1023.3 1023.0 0.0
02/02:30am 11.9 10.3 8.6 80 1.7 S 7 9 4 5 1023.3 1023.0 0.0
02/02:00am 12.8 11.7 8.3 74 2.3 SSE 4 6 2 3 1023.3 1023.0 0.0
02/01:30am 13.4 11.8 8.7 73 2.4 S 7 9 4 5 1023.2 1022.9 0.0
02/01:00am 13.1 11.4 8.4 73 2.4 SSW 7 9 4 5 1023.2 1022.9 0.0
02/12:30am 13.8 12.7 8.6 71 2.6 S 4 6 2 3 1023.1 1022.8 0.0
02/12:00am 12.6 10.5 8.3 75 2.2 SSW 9 13 5 7 1022.9 1022.6 0.0
 
Date/Time
EST
Temp
°C
App
Temp
°C
Dew
Point
Rel
Hum
%
Delta-T
°C
Wind Press
QNH
hPa
Press
MSL
hPa
Rain
since 9 am
mm
Dir
 
Spd
km/h
Gust
km/h
Spd
kts
Gust
kts
01/11:30pm 11.7 9.5 7.8 77 1.9 S 9 15 5 8 1023.2 1022.9 0.0
01/11:00pm 10.6 9.8 6.4 75 2.0 CALM 0 2 0 1 1022.9 1022.6 0.0
01/10:30pm 11.5 10.2 6.2 70 2.5 NW 2 4 1 2 1023.0 1022.7 0.0
01/10:00pm 12.1 11.4 7.0 71 2.5 CALM 0 0 0 0 1023.1 1022.8 0.0
01/09:30pm 12.4 10.9 6.7 68 2.8 WSW 4 6 2 3 1023.0 1022.7 0.0
01/09:00pm 14.0 13.4 7.5 65 3.2 CALM 0 0 0 0 1023.0 1022.7 0.0
01/08:30pm 14.1 13.5 7.2 63 3.4 CALM 0 0 0 0 1022.8 1022.5 0.0
01/08:00pm 15.4 14.9 7.7 60 3.9 CALM 0 0 0 0 1022.5 1022.2 0.0
01/07:30pm 16.6 16.1 7.8 56 4.5 CALM 0 0 0 0 1022.3 1022.0 0.0
01/07:00pm 18.0 16.6 7.1 49 5.5 SSE 4 6 2 3 1022.1 1021.8 0.0
01/06:30pm 19.9 18.9 8.9 49 5.9 SE 4 6 2 3 1021.7 1021.5 0.0
01/06:00pm 21.0 20.2 8.3 44 6.7 SE 2 4 1 2 1021.5 1021.2 0.0
01/05:30pm 22.9 21.3 8.6 40 7.7 SSE 7 11 4 6 1021.4 1021.1 0.0
01/05:00pm 23.7 21.3 8.6 38 8.1 SSE 11 17 6 9 1021.1 1020.8 0.0
01/04:30pm 24.6 22.6 8.5 36 8.7 SSE 9 15 5 8 1020.9 1020.6 0.0
01/04:00pm 24.8 22.0 8.7 36 8.8 SSE 13 24 7 13 1020.7 1020.4 0.0
01/03:30pm 24.7 21.6 9.0 37 8.6 SE 15 20 8 11 1020.8 1020.5 0.0
01/03:00pm 24.7 22.0 9.0 37 8.6 SSE 13 24 7 13 1021.0 1020.7 0.0
01/02:30pm 24.0 22.2 9.6 40 7.9 SSE 9 19 5 10 1021.2 1020.9 0.0
01/02:00pm 24.5 21.7 10.0 40 8.0 SSE 15 22 8 12 1021.5 1021.2 0.0
01/01:30pm 24.1 22.8 11.1 44 7.4 SSW 9 15 5 8 1021.8 1021.6 0.0
01/01:00pm 23.4 22.1 11.1 46 6.9 SSE 9 20 5 11 1022.5 1022.2 0.0
01/12:30pm 23.2 21.6 11.6 48 6.6 SE 11 19 6 10 1023.0 1022.7 0.0
01/12:00pm 23.5 22.4 11.9 48 6.6 SSE 9 17 5 9 1023.8 1023.5 0.0

Other Formats:

Comma delimited format used in spreadsheet applications
http://www.bom.gov.au/fwo/IDQ60801/IDQ60801.94395.axf

JavaScript Object Notation format (JSON) in row-major order
http://www.bom.gov.au/fwo/IDQ60801/IDQ60801.94395.json